createdAt,value
2019-04-23T00:01:47.211Z,6.77
2019-04-23T00:04:10.121Z,7.10
2019-04-23T00:06:45.635Z,6.57
2019-04-23T00:09:19.183Z,7.27
2019-04-23T00:14:21.083Z,6.90
2019-04-23T00:16:44.065Z,6.53
2019-04-23T00:19:17.051Z,6.67
2019-04-23T00:22:00.375Z,6.97
2019-04-23T00:25:12.164Z,7.07
2019-04-23T00:29:53.689Z,6.83
2019-04-23T00:32:23.429Z,6.53
2019-04-23T00:34:55.864Z,7.13
2019-04-23T00:37:25.775Z,6.30
2019-04-23T00:39:52.517Z,6.70
2019-04-23T00:44:54.320Z,6.53
2019-04-23T00:47:27.601Z,6.10
2019-04-23T00:50:03.606Z,5.70
2019-04-23T00:52:26.388Z,6.20
2019-04-23T00:55:07.722Z,5.63
2019-04-23T00:57:29.052Z,6.63
2019-04-23T01:00:03.464Z,5.87
2019-04-23T01:02:33.277Z,6.33
2019-04-23T01:05:04.802Z,6.13
2019-04-23T01:07:33.588Z,6.43
2019-04-23T01:10:08.299Z,5.70
2019-04-23T01:15:15.721Z,6.53
2019-04-23T01:20:14.260Z,6.03
2019-04-23T01:22:29.621Z,6.50
2019-04-23T01:25:13.794Z,5.60
2019-04-23T01:28:04.393Z,6.27
2019-04-23T01:30:38.840Z,6.67
2019-04-23T01:33:03.345Z,6.30
2019-04-23T01:35:36.556Z,5.90
2019-04-23T01:38:04.829Z,6.40
2019-04-23T01:40:39.438Z,6.40
2019-04-23T01:43:07.946Z,6.03
2019-04-23T01:45:57.431Z,6.17
2019-04-23T01:48:11.108Z,6.43
2019-04-23T01:50:50.194Z,5.67
2019-04-23T01:55:46.877Z,6.47
2019-04-23T01:58:34.990Z,6.43
2019-04-23T02:00:47.565Z,5.90
2019-04-23T02:03:21.184Z,6.30
2019-04-23T02:05:48.084Z,6.10
2019-04-23T02:08:22.787Z,6.27
2019-04-23T02:13:22.355Z,6.60
2019-04-23T02:15:53.810Z,5.60
2019-04-23T02:18:20.572Z,5.63
2019-04-23T02:20:59.544Z,6.27
2019-04-23T02:23:53.726Z,5.90
2019-04-23T02:26:33.319Z,5.63
2019-04-23T02:29:06.433Z,5.67
2019-04-23T02:34:12.161Z,6.17
2019-04-23T02:36:39.876Z,6.83
2019-04-23T02:46:31.712Z,6.37
2019-04-23T02:49:38.198Z,5.60
2019-04-23T02:56:47.105Z,4.97
2019-04-23T02:59:18.958Z,5.50
2019-04-23T03:01:40.039Z,7.33
2019-04-23T03:04:17.446Z,6.37
2019-04-23T03:06:52.254Z,7.13
2019-04-23T03:09:20.094Z,6.73
2019-04-23T03:11:52.261Z,5.70
2019-04-23T03:14:18.478Z,6.00
2019-04-23T03:22:30.534Z,5.20
2019-04-23T03:25:23.276Z,7.37
2019-04-23T03:27:44.047Z,5.30
2019-04-23T03:34:42.585Z,5.97
2019-04-23T03:37:58.169Z,7.00
2019-04-23T03:40:32.420Z,7.17
2019-04-23T03:43:06.430Z,7.10
2019-04-23T03:45:37.030Z,6.20
2019-04-23T03:52:46.528Z,6.37
2019-04-23T03:57:52.343Z,7.00
2019-04-23T04:00:35.180Z,6.93
2019-04-23T04:03:27.901Z,7.10
2019-04-23T04:05:49.312Z,7.50
2019-04-23T04:10:35.293Z,7.00
2019-04-23T04:12:59.195Z,7.60
2019-04-23T04:20:52.363Z,7.13
2019-04-23T04:23:22.222Z,8.13
2019-04-23T04:28:12.955Z,8.13
2019-04-23T04:30:43.517Z,8.63
2019-04-23T04:33:41.340Z,8.37
2019-04-23T04:35:58.369Z,7.30
2019-04-23T04:38:36.383Z,8.20
2019-04-23T04:43:32.247Z,7.67
2019-04-23T04:53:47.417Z,7.97
2019-04-23T04:56:07.786Z,7.17
2019-04-23T04:58:32.388Z,7.93
2019-04-23T05:01:10.059Z,8.33
2019-04-23T05:03:28.533Z,7.67
2019-04-23T05:06:18.612Z,7.50
2019-04-23T05:11:10.933Z,7.47
2019-04-23T05:16:10.082Z,7.87
2019-04-23T05:18:38.174Z,7.20
2019-04-23T05:23:43.009Z,7.97
2019-04-23T05:26:21.017Z,7.73
2019-04-23T05:31:19.013Z,7.20
2019-04-23T05:33:52.214Z,8.07
2019-04-23T05:41:38.466Z,7.40
2019-04-23T05:43:57.236Z,8.13
2019-04-23T05:46:26.417Z,7.33
2019-04-23T05:51:27.955Z,7.30
2019-04-23T05:56:29.106Z,7.87
2019-04-23T05:58:59.605Z,7.63
2019-04-23T06:06:54.159Z,7.33
2019-04-23T06:09:07.803Z,7.30
2019-04-23T06:11:47.056Z,7.40
2019-04-23T06:14:24.989Z,7.43
2019-04-23T06:19:11.185Z,6.90
2019-04-23T06:21:47.867Z,7.17
2019-04-23T06:24:16.991Z,6.97
2019-04-23T06:26:52.753Z,7.40
2019-04-23T06:29:15.484Z,7.30
2019-04-23T06:31:42.981Z,6.83
2019-04-23T06:36:37.815Z,7.40
2019-04-23T06:39:13.330Z,6.63
2019-04-23T06:41:44.841Z,6.67
2019-04-23T06:44:28.438Z,6.83
2019-04-23T06:47:02.107Z,7.57
2019-04-23T06:49:26.447Z,8.30
2019-04-23T06:52:08.442Z,7.20
2019-04-23T06:54:24.465Z,7.23
2019-04-23T06:59:29.328Z,6.90
2019-04-23T07:04:39.366Z,6.47
2019-04-23T07:07:25.664Z,7.20
2019-04-23T07:09:18.692Z,7.00
2019-04-23T07:11:54.048Z,7.27
2019-04-23T07:14:35.913Z,7.67
2019-04-23T07:17:04.273Z,7.53
2019-04-23T07:19:39.241Z,7.53
2019-04-23T07:22:12.908Z,7.20
2019-04-23T07:24:34.557Z,7.20
2019-04-23T07:27:01.325Z,6.80
2019-04-23T07:29:39.189Z,6.67
2019-04-23T07:32:05.384Z,7.13
2019-04-23T07:34:39.317Z,6.17
2019-04-23T07:37:12.601Z,7.30
2019-04-23T07:40:11.325Z,6.40
2019-04-23T07:48:11.269Z,6.70
2019-04-23T07:58:20.821Z,6.00
2019-04-23T08:05:43.983Z,6.70
2019-04-23T08:08:13.402Z,6.27
2019-04-23T08:11:23.425Z,6.50
2019-04-23T08:13:41.654Z,5.80
2019-04-23T08:16:19.694Z,6.20
2019-04-23T08:18:45.369Z,6.03
2019-04-23T08:21:10.599Z,5.73
2019-04-23T08:23:55.269Z,6.03
2019-04-23T08:26:45.112Z,5.70
2019-04-23T08:29:17.133Z,6.20
2019-04-23T08:31:46.704Z,5.40
2019-04-23T08:39:21.545Z,6.27
2019-04-23T08:41:59.661Z,5.87
2019-04-23T08:44:41.495Z,6.37
2019-04-23T08:47:09.426Z,6.07
2019-04-23T08:49:43.251Z,5.67
2019-04-23T08:52:11.815Z,4.67
2019-04-23T08:54:48.397Z,5.87
2019-04-23T08:59:45.171Z,5.67
2019-04-23T09:05:02.545Z,5.50
2019-04-23T09:07:16.923Z,5.97
2019-04-23T09:09:53.677Z,6.07
2019-04-23T09:12:21.031Z,5.20
2019-04-23T09:14:46.563Z,6.20
2019-04-23T09:17:37.659Z,5.60
2019-04-23T09:20:09.862Z,5.97
2019-04-23T09:22:25.109Z,5.47
2019-04-23T09:27:27.529Z,5.43
2019-04-23T09:30:00.048Z,5.33
2019-04-23T09:32:26.591Z,5.70
2019-04-23T09:35:20.247Z,6.30
2019-04-23T09:37:54.110Z,5.37
2019-04-23T09:43:31.250Z,7.13
2019-04-23T09:46:32.067Z,6.53
2019-04-23T09:49:09.791Z,6.13
2019-04-23T09:51:38.665Z,6.27
2019-04-23T09:54:02.945Z,6.83
2019-04-23T09:56:39.329Z,5.67
2019-04-23T09:59:08.922Z,6.40
2019-04-23T10:03:56.112Z,6.40
2019-04-23T10:06:18.334Z,6.00
2019-04-23T10:08:47.572Z,6.07
2019-04-23T10:11:13.610Z,6.50
2019-04-23T10:13:42.963Z,5.30
2019-04-23T10:16:15.630Z,5.67
2019-04-23T10:18:42.923Z,5.30
2019-04-23T10:21:13.101Z,4.93
2019-04-23T10:23:43.299Z,5.50
2019-04-23T10:26:12.396Z,5.73
2019-04-23T10:29:09.956Z,5.43
2019-04-23T10:31:40.028Z,6.13
2019-04-23T10:34:10.341Z,5.73
2019-04-23T10:36:40.663Z,6.67
2019-04-23T10:39:17.579Z,6.70
2019-04-23T10:41:45.731Z,5.87
2019-04-23T10:44:32.997Z,5.87
2019-04-23T10:47:45.352Z,5.73
2019-04-23T10:58:25.009Z,5.90
2019-04-23T11:01:01.662Z,7.20
2019-04-23T11:03:41.984Z,5.87
2019-04-23T11:08:30.984Z,5.67
2019-04-23T11:11:00.163Z,5.70
2019-04-23T11:13:50.208Z,5.87
2019-04-23T11:16:45.927Z,5.90
2019-04-23T11:21:23.752Z,5.87
2019-04-23T11:23:51.799Z,5.67
2019-04-23T11:26:31.854Z,5.67
2019-04-23T11:28:51.888Z,5.90
2019-04-23T11:31:31.568Z,5.40
2019-04-23T11:34:01.588Z,5.43
2019-04-23T11:39:00.642Z,6.23
2019-04-23T11:41:32.412Z,5.80
2019-04-23T11:51:09.303Z,6.10
2019-04-23T11:51:09.304Z,5.70
2019-04-23T11:51:45.910Z,5.87
2019-04-23T11:54:07.065Z,5.87
2019-04-23T11:59:07.539Z,6.07
2019-04-23T12:02:07.386Z,7.27
2019-04-23T12:05:03.756Z,6.40
2019-04-23T12:07:32.605Z,5.87
2019-04-23T12:12:33.334Z,5.70
2019-04-23T12:15:15.343Z,6.13
2019-04-23T12:17:49.053Z,6.00
2019-04-23T12:22:48.951Z,6.00
2019-04-23T12:27:59.363Z,6.03
2019-04-23T12:30:27.392Z,6.90
2019-04-23T12:32:53.685Z,6.40
2019-04-23T12:37:56.282Z,6.60
2019-04-23T12:40:25.049Z,6.00
2019-04-23T12:45:30.162Z,6.93
2019-04-23T12:50:45.048Z,6.43
2019-04-23T12:53:05.732Z,6.50
2019-04-23T12:58:03.847Z,6.30
2019-04-23T13:03:25.971Z,5.80
2019-04-23T13:05:33.944Z,6.43
2019-04-23T13:08:24.574Z,7.20
2019-04-23T13:10:43.638Z,6.57
2019-04-23T13:15:40.882Z,6.33
2019-04-23T13:20:38.461Z,6.40
2019-04-23T13:23:18.322Z,6.47
2019-04-23T13:28:29.505Z,6.83
2019-04-23T13:30:59.542Z,6.40
2019-04-23T13:41:08.800Z,7.03
2019-04-23T13:43:40.438Z,6.87
2019-04-23T13:48:27.990Z,6.93
2019-04-23T13:51:06.725Z,6.90
2019-04-23T13:56:11.510Z,7.13
2019-04-23T14:11:21.638Z,7.00
2019-04-23T14:16:29.836Z,6.93
2019-04-23T14:21:25.261Z,6.90
2019-04-23T14:24:02.923Z,7.27
2019-04-23T14:28:44.557Z,6.83
2019-04-23T14:34:01.311Z,8.07
2019-04-23T14:36:25.315Z,7.50
2019-04-23T14:39:07.274Z,8.27
2019-04-23T14:42:16.669Z,7.20
2019-04-23T14:44:11.056Z,7.63
2019-04-23T14:49:30.852Z,7.33
2019-04-23T14:51:47.814Z,6.97
2019-04-23T14:54:15.808Z,6.90
2019-04-23T14:56:44.905Z,8.43
2019-04-23T14:59:10.452Z,7.33
2019-04-23T15:04:10.919Z,7.50
2019-04-23T15:06:58.293Z,6.77
2019-04-23T15:09:27.616Z,7.90
2019-04-23T15:11:52.750Z,7.57
2019-04-23T15:14:17.725Z,6.97
2019-04-23T15:16:54.441Z,7.67
2019-04-23T15:19:40.423Z,7.57
2019-04-23T15:22:12.501Z,7.53
2019-04-23T15:29:24.551Z,7.77
2019-04-23T15:32:08.989Z,7.77
2019-04-23T15:34:57.526Z,8.27
2019-04-23T15:44:41.933Z,7.33
2019-04-23T15:47:19.687Z,7.63
2019-04-23T15:49:47.390Z,7.77
2019-04-23T15:52:39.330Z,8.13
2019-04-23T15:54:50.540Z,7.73
2019-04-23T15:57:28.445Z,7.17
2019-04-23T15:59:47.864Z,8.23
2019-04-23T16:01:51.202Z,9.27
2019-04-23T16:04:20.817Z,9.47
2019-04-23T16:06:51.915Z,9.30
2019-04-23T16:09:57.371Z,8.47
2019-04-23T16:12:20.458Z,8.90
2019-04-23T16:15:03.655Z,8.90
2019-04-23T16:22:30.410Z,8.37
2019-04-23T16:25:06.852Z,8.37
2019-04-23T16:27:28.306Z,8.70
2019-04-23T16:35:50.671Z,9.07
2019-04-23T16:38:26.704Z,8.60
2019-04-23T16:41:00.759Z,8.97
2019-04-23T16:43:13.265Z,8.90
2019-04-23T16:48:35.058Z,9.00
2019-04-23T16:53:21.204Z,8.83
2019-04-23T16:56:01.551Z,8.90
2019-04-23T16:58:29.457Z,9.03
2019-04-23T17:01:05.899Z,8.57
2019-04-23T17:03:26.245Z,8.83
2019-04-23T17:05:59.457Z,8.83
2019-04-23T17:11:00.126Z,9.43
2019-04-23T17:13:34.660Z,8.47
2019-04-23T17:18:31.882Z,8.80
2019-04-23T17:20:58.326Z,8.17
2019-04-23T17:23:39.957Z,8.50
2019-04-23T17:26:03.425Z,9.23
2019-04-23T17:28:31.054Z,8.93
2019-04-23T17:31:28.169Z,9.20
2019-04-23T17:33:45.125Z,9.70
2019-04-23T17:39:04.000Z,8.77
2019-04-23T17:41:57.451Z,9.03
2019-04-23T17:44:23.625Z,9.00
2019-04-23T17:46:57.963Z,9.03
2019-04-23T17:49:15.301Z,8.60
2019-04-23T17:51:53.811Z,9.00
2019-04-23T17:54:23.257Z,9.00
2019-04-23T17:57:05.509Z,9.17
2019-04-23T17:59:27.765Z,8.87
2019-04-23T18:02:24.269Z,9.40
2019-04-23T18:04:29.658Z,9.00
2019-04-23T18:14:16.497Z,9.20
2019-04-23T18:16:57.200Z,10.20
2019-04-23T18:19:22.854Z,9.57
2019-04-23T18:27:24.735Z,9.60
2019-04-23T18:30:15.237Z,10.17
2019-04-23T18:33:01.337Z,10.13
2019-04-23T18:35:20.100Z,9.70
2019-04-23T18:37:44.292Z,9.20
2019-04-23T18:40:13.052Z,9.90
2019-04-23T18:42:43.696Z,9.53
2019-04-23T18:45:22.805Z,9.33
2019-04-23T18:50:32.779Z,10.00
2019-04-23T18:55:35.979Z,10.20
2019-04-23T18:58:03.396Z,9.77
2019-04-23T19:00:41.438Z,10.27
2019-04-23T19:03:11.544Z,9.97
2019-04-23T19:05:55.029Z,9.93
2019-04-23T19:08:42.572Z,10.57
2019-04-23T19:11:09.138Z,10.43
2019-04-23T19:13:40.338Z,11.07
2019-04-23T19:16:08.087Z,10.03
2019-04-23T19:18:40.381Z,10.63
2019-04-23T19:21:13.863Z,10.20
2019-04-23T19:23:47.269Z,9.93
2019-04-23T19:26:15.794Z,9.10
2019-04-23T19:28:47.639Z,9.30
2019-04-23T19:31:47.586Z,10.10
2019-04-23T19:34:21.377Z,9.33
2019-04-23T19:36:56.352Z,9.67
2019-04-23T19:39:11.915Z,9.40
2019-04-23T19:42:02.123Z,9.40
2019-04-23T19:44:08.381Z,8.93
2019-04-23T19:46:54.856Z,8.37
2019-04-23T19:51:48.161Z,8.53
2019-04-23T19:56:49.782Z,8.47
2019-04-23T19:59:14.104Z,8.23
2019-04-23T20:01:53.345Z,8.13
2019-04-23T20:04:15.415Z,8.07
2019-04-23T20:07:05.472Z,8.10
2019-04-23T20:09:37.415Z,7.50
2019-04-23T20:12:07.313Z,7.63
2019-04-23T20:14:21.472Z,7.47
2019-04-23T20:19:34.904Z,6.93
2019-04-23T20:21:59.221Z,7.37
2019-04-23T20:24:28.614Z,6.73
2019-04-23T20:26:59.384Z,7.13
2019-04-23T20:35:08.524Z,6.47
2019-04-23T20:40:04.138Z,7.17
2019-04-23T20:42:38.994Z,6.20
2019-04-23T20:45:22.607Z,6.90
2019-04-23T20:47:45.595Z,7.17
2019-04-23T20:50:00.076Z,6.17
2019-04-23T20:52:44.817Z,7.03
2019-04-23T20:57:54.964Z,6.37
2019-04-23T21:00:42.981Z,6.87
2019-04-23T21:05:36.035Z,6.37
2019-04-23T21:08:41.011Z,6.60
2019-04-23T21:20:48.850Z,5.97
2019-04-23T21:23:21.639Z,6.17
2019-04-23T21:25:49.036Z,6.37
2019-04-23T21:28:27.154Z,5.90
2019-04-23T21:31:16.428Z,5.83
2019-04-23T21:33:55.378Z,5.97
2019-04-23T21:44:21.018Z,6.27
2019-04-23T21:46:58.492Z,6.60
2019-04-23T21:51:57.584Z,5.93
2019-04-23T21:54:35.337Z,6.23
2019-04-23T21:56:55.328Z,6.07
2019-04-23T21:59:28.627Z,6.43
2019-04-23T22:01:58.835Z,6.40
2019-04-23T22:04:35.691Z,5.97
2019-04-23T22:06:59.088Z,7.00
2019-04-23T22:09:34.642Z,6.60
2019-04-23T22:14:40.549Z,6.80
2019-04-23T22:17:09.478Z,6.47
2019-04-23T22:19:38.355Z,6.90
2019-04-23T22:22:02.589Z,6.50
2019-04-23T22:24:43.033Z,6.50
2019-04-23T22:27:10.114Z,6.10
2019-04-23T22:29:39.724Z,6.57
2019-04-23T22:32:16.679Z,6.30
2019-04-23T22:34:48.288Z,6.23
2019-04-23T22:37:14.034Z,6.10
2019-04-23T22:39:45.743Z,6.00
2019-04-23T22:42:34.913Z,5.43
2019-04-23T22:44:59.092Z,5.73
2019-04-23T22:47:08.821Z,6.30
2019-04-23T22:52:21.688Z,5.73
2019-04-23T22:57:32.777Z,5.53
2019-04-23T23:00:09.162Z,5.60
2019-04-23T23:02:44.388Z,5.60
2019-04-23T23:05:14.373Z,5.30
2019-04-23T23:07:48.849Z,5.50
2019-04-23T23:17:54.633Z,5.20
2019-04-23T23:20:21.116Z,5.47
2019-04-23T23:23:05.643Z,5.40
2019-04-23T23:25:23.838Z,5.33
2019-04-23T23:27:55.231Z,5.13
2019-04-23T23:32:52.389Z,5.10
2019-04-23T23:35:31.213Z,5.17
2019-04-23T23:37:52.957Z,5.53
2019-04-23T23:40:20.439Z,5.33
2019-04-23T23:43:03.693Z,4.80
2019-04-23T23:45:30.500Z,5.00
2019-04-23T23:50:28.072Z,5.87
2019-04-23T23:53:05.247Z,5.37
2019-04-23T23:55:18.503Z,5.37
2019-04-23T23:57:59.749Z,5.37
